Lesley Pg — MXUG5 — position and weather

sailwx.info

Track history (hours):
 
Tides and Currents Weather Stations Pressure Air Temp Water Temp Dewpoint Dewpoint Depression Visibility Wind Speed Wind Dir Waves Ship Positions

Lesley Pg

Last reported at 2014-Dec-18 08:33 UTC. Time now 2014-Dec-21 01:09 UTC.
Position N 16°58' W 061°57'.

Length 102 m; draft 4.4 m.

Type: Tanker. MMSI: 234910000.

Date/timePositionNaut miles runAvg speedWind from/ knotsBaromVisibWave heightAir tempDewpointWater temp
2014-Dec-18 08:33N 16°58' W 061°57'5 4.9
2014-Dec-18 07:33N 16°53' W 061°58'1110.8
2014-Dec-18 06:33N 16°42' W 061°57'1111.3
2014-Dec-18 05:33N 16°31' W 061°56'18 0.7
2014-Dec-17 04:30N 16°33' W 062°15'1211.6
2014-Dec-17 03:26N 16°43' W 062°23'1411.8
2014-Dec-17 02:13N 16°55' W 062°31'21 1.1
2014-Dec-16 06:08N 16°37' W 062°18'52 1.4
2014-Dec-14 15:33N 15°56' W 061°45'3311.1
2014-Dec-14 12:33N 16°27' W 061°56'1211.9
2014-Dec-14 11:34N 16°39' W 061°56'1212.0
2014-Dec-14 10:33N 16°51' W 061°57'1311.9
2014-Dec-14 09:28N 17°04' W 061°57'  
2014-Dec-11 08:34N 16°58' W 061°57'1110.6
2014-Dec-11 07:34N 16°47' W 061°57'2 1.9
2014-Dec-11 06:33N 16°46' W 061°57'1111.0
2014-Dec-11 05:33N 16°35' W 061°57'4410.8
2014-Dec-11 01:30N 15°52' W 061°46'  
Track history (hours):
 
Tides and Currents Weather Stations Pressure Air Temp Water Temp Dewpoint Dewpoint Depression Visibility Wind Speed Wind Dir Waves Ship Positions

Lesley Pg

Last reported at 2014-Dec-18 08:33 UTC. Time now 2014-Dec-21 01:09 UTC.
Position N 16°58' W 061°57'.

Length 102 m; draft 4.4 m.

Type: Tanker. MMSI: 234910000.

Date/timePositionNaut miles runAvg speedWind from/ knotsBaromVisibWave heightAir tempDewpointWater temp
2014-Dec-18 08:33N 16°58' W 061°57'5 4.9
2014-Dec-18 07:33N 16°53' W 061°58'1110.8
2014-Dec-18 06:33N 16°42' W 061°57'1111.3
2014-Dec-18 05:33N 16°31' W 061°56'18 0.7
2014-Dec-17 04:30N 16°33' W 062°15'1211.6
2014-Dec-17 03:26N 16°43' W 062°23'1411.8
2014-Dec-17 02:13N 16°55' W 062°31'21 1.1
2014-Dec-16 06:08N 16°37' W 062°18'52 1.4
2014-Dec-14 15:33N 15°56' W 061°45'3311.1
2014-Dec-14 12:33N 16°27' W 061°56'1211.9
2014-Dec-14 11:34N 16°39' W 061°56'1212.0
2014-Dec-14 10:33N 16°51' W 061°57'1311.9
2014-Dec-14 09:28N 17°04' W 061°57'  
2014-Dec-11 08:34N 16°58' W 061°57'1110.6
2014-Dec-11 07:34N 16°47' W 061°57'2 1.9
2014-Dec-11 06:33N 16°46' W 061°57'1111.0
2014-Dec-11 05:33N 16°35' W 061°57'4410.8
2014-Dec-11 01:30N 15°52' W 061°46'  

Dump ship's entire track history